Pride Of Kent — MQCJ2 — position and weather

sailwx.info

Track history (hours):
 
Tides and Currents Weather Stations Pressure Air Temp Water Temp Dewpoint Dewpoint Depression Visibility Wind Speed Wind Dir Waves Ship Positions

Pride Of Kent

Operator: P & O Ferries

Last reported at 2017-Apr-30 14:30 UTC. Time now 2017-Apr-30 14:49 UTC.
Position N 50°60' E 001°41'.

Length 180 m; draft 6 m.

Type: Passenger vessel. MMSI: 232009000.

Date/timePositionNaut miles runAvg speedWind from/ knotsBaromVisibWave heightAir tempDewpointWater temp
2017-Apr-30 14:30N 50°60' E 001°41'7 6.8
2017-Apr-30 13:30N 50°58' E 001°51'1 2.4
2017-Apr-30 13:00N 50°58' E 001°49'1020.1
2017-Apr-30 12:30N 51°00' E 001°34'1019.2
2017-Apr-30 12:01N 51°07' E 001°22'2 2.7
2017-Apr-30 11:27N 51°07' E 001°20'0 0.6
2017-Apr-30 11:00N 51°07' E 001°20'816.2
2017-Apr-30 10:31N 51°04' E 001°31'1020.2
2017-Apr-30 10:00N 50°58' E 001°45'4 7.6
2017-Apr-30 09:30N 50°58' E 001°51'0 0.0
2017-Apr-30 09:00N 50°58' E 001°51'3 6.1
2017-Apr-30 08:31N 50°58' E 001°46'917.2
2017-Apr-30 08:00N 51°01' E 001°33'918.8
2017-Apr-30 07:30N 51°07' E 001°21'1 0.6
2017-Apr-30 05:55N 51°07' E 001°20'410.4
2017-Apr-30 05:30N 51°06' E 001°27'1019.5
2017-Apr-30 05:00N 51°01' E 001°39'815.3
2017-Apr-30 04:31N 50°58' E 001°51'0 0.2
2017-Apr-30 03:59N 50°58' E 001°51'0 0.7
2017-Apr-30 03:30N 50°58' E 001°51'917.9
2017-Apr-30 03:00N 50°60' E 001°36'917.1
2017-Apr-30 02:30N 51°05' E 001°26'4 8.6
2017-Apr-30 02:00N 51°07' E 001°20'0 0.0
2017-Apr-30 01:25N 51°07' E 001°20'0 0.0
2017-Apr-30 01:00N 51°07' E 001°20'3 6.0
2017-Apr-30 00:31N 51°07' E 001°25'918.6
2017-Apr-30 00:01N 51°01' E 001°37'816.6
2017-Apr-29 23:30N 50°58' E 001°49'1 2.5
2017-Apr-29 23:00N 50°58' E 001°51'0 0.0
2017-Apr-29 22:30N 50°58' E 001°51'713.3
2017-Apr-29 22:00N 50°58' E 001°40'816.4
2017-Apr-29 21:30N 51°02' E 001°29'8 6.5
2017-Apr-29 20:20N 51°07' E 001°20'0 0.0
2017-Apr-29 19:59N 51°07' E 001°20'613.4
2017-Apr-29 19:30N 51°05' E 001°30'918.5
2017-Apr-29 19:01N 50°60' E 001°41'612.8
2017-Apr-29 18:31N 50°58' E 001°51'0 0.0
2017-Apr-29 18:00N 50°58' E 001°51'1 1.4
2017-Apr-29 17:30N 50°58' E 001°50'1018.1
2017-Apr-29 16:59N 50°59' E 001°35'918.5
2017-Apr-29 16:31N 51°05' E 001°25'4 7.7
2017-Apr-29 16:00N 51°07' E 001°20'0 0.2
2017-Apr-29 15:27N 51°07' E 001°20'715.7
2017-Apr-29 15:00N 51°05' E 001°31'918.4
2017-Apr-29 14:30N 50°60' E 001°42'6 5.7
2017-Apr-29 13:30N 50°58' E 001°51'3 5.2
2017-Apr-29 13:00N 50°58' E 001°47'1020.1
2017-Apr-29 12:30N 51°02' E 001°32'918.4
2017-Apr-29 12:00N 51°07' E 001°20'1 1.1
2017-Apr-29 11:30N 51°07' E 001°20'0 0.2
2017-Apr-29 10:58N 51°07' E 001°20'816.7
2017-Apr-29 10:30N 51°04' E 001°32'1020.0
2017-Apr-29 10:00N 50°58' E 001°44'4 8.4
2017-Apr-29 09:30N 50°58' E 001°51'0 0.0
2017-Apr-29 09:00N 50°58' E 001°51'2 4.2
2017-Apr-29 08:30N 50°58' E 001°48'816.6
2017-Apr-29 08:00N 51°00' E 001°35'918.5
2017-Apr-29 07:30N 51°06' E 001°24'3 2.1
2017-Apr-29 06:19N 51°07' E 001°20'2 7.8
2017-Apr-29 06:01N 51°07' E 001°24'917.5
2017-Apr-29 05:31N 51°02' E 001°35'917.2
2017-Apr-29 05:01N 50°58' E 001°47'2 4.5
2017-Apr-29 04:31N 50°58' E 001°51'0 0.0
2017-Apr-29 04:01N 50°58' E 001°51'611.5
2017-Apr-29 03:30N 50°58' E 001°42'917.9
2017-Apr-29 03:01N 51°03' E 001°30'812.0
2017-Apr-29 02:22N 51°07' E 001°20'0 0.0
2017-Apr-29 01:55N 51°07' E 001°20'2 5.3
2017-Apr-29 01:30N 51°07' E 001°23'918.8
2017-Apr-29 01:00N 51°02' E 001°36'816.9
2017-Apr-29 00:30N 50°58' E 001°48'2 4.3
2017-Apr-29 00:01N 50°58' E 001°52'0 0.0
2017-Apr-28 23:31N 50°58' E 001°52'4 7.2
2017-Apr-28 23:01N 50°58' E 001°46'917.4
2017-Apr-28 22:30N 51°00' E 001°33'917.4
2017-Apr-28 22:00N 51°06' E 001°23'2 3.2
2017-Apr-28 21:24N 51°07' E 001°20'0 0.3
2017-Apr-28 21:00N 51°07' E 001°20'815.9
2017-Apr-28 20:31N 51°05' E 001°32'918.1
2017-Apr-28 20:01N 50°59' E 001°43'610.9
2017-Apr-28 19:30N 50°58' E 001°52'0 0.0
2017-Apr-28 19:01N 50°58' E 001°52'0 0.0
2017-Apr-28 18:31N 50°58' E 001°52'4 8.5
2017-Apr-28 18:00N 50°58' E 001°45'816.6
2017-Apr-28 17:30N 51°02' E 001°33'917.7
2017-Apr-28 17:00N 51°07' E 001°22'1 1.2
2017-Apr-28 16:03N 51°07' E 001°20'0 1.0
2017-Apr-28 15:59N 51°07' E 001°20'510.2
2017-Apr-28 15:31N 51°06' E 001°27'917.5
2017-Apr-28 15:01N 51°01' E 001°39'8 8.2
2017-Apr-28 14:00N 50°58' E 001°51'0 0.0
2017-Apr-28 13:29N 50°58' E 001°51'612.7
2017-Apr-28 13:00N 50°59' E 001°41'918.5
2017-Apr-28 12:30N 51°03' E 001°29'7 5.4
2017-Apr-28 11:14N 51°07' E 001°20'1 6.1
2017-Apr-28 11:01N 51°07' E 001°22'917.6
2017-Apr-28 10:30N 51°03' E 001°35'917.7
2017-Apr-28 10:01N 50°58' E 001°46'3 5.9
2017-Apr-28 09:30N 50°58' E 001°51'0 0.0
2017-Apr-28 09:00N 50°58' E 001°51'5 9.1
2017-Apr-28 08:30N 50°58' E 001°44'816.4
2017-Apr-28 08:01N 51°01' E 001°32'917.5
2017-Apr-28 07:30N 51°07' E 001°21'1 0.7
2017-Apr-28 06:20N 51°07' E 001°20'3 8.2
2017-Apr-28 06:00N 51°07' E 001°24'917.6
2017-Apr-28 05:30N 51°02' E 001°36'917.1
2017-Apr-28 05:00N 50°58' E 001°48'2 3.4
2017-Apr-28 04:30N 50°58' E 001°51'0 0.0
2017-Apr-28 04:00N 50°58' E 001°51'0 1.0
2017-Apr-28 03:30N 50°58' E 001°50'917.5
2017-Apr-28 03:00N 51°00' E 001°37'918.5
2017-Apr-28 02:30N 51°06' E 001°25'4 7.0
2017-Apr-28 02:00N 51°07' E 001°20'0 0.0
2017-Apr-28 01:16N 51°07' E 001°20'0 0.1
2017-Apr-28 00:56N 51°07' E 001°20'511.0
2017-Apr-28 00:31N 51°07' E 001°27'918.4
2017-Apr-28 00:01N 51°01' E 001°39'816.0
2017-Apr-27 23:30N 50°58' E 001°51'1 1.3
2017-Apr-27 23:00N 50°58' E 001°52'0 0.0
2017-Apr-27 22:30N 50°58' E 001°52'510.9
2017-Apr-27 22:00N 50°58' E 001°43'917.2
2017-Apr-27 21:30N 51°02' E 001°31'917.1
2017-Apr-27 21:00N 51°07' E 001°20'0 0.3
2017-Apr-27 20:04N 51°07' E 001°20'0 1.4
2017-Apr-27 19:59N 51°07' E 001°20'815.7
2017-Apr-27 19:30N 51°04' E 001°31'918.3
2017-Apr-27 19:00N 50°59' E 001°43'510.4
2017-Apr-27 18:30N 50°58' E 001°51'0 0.0
2017-Apr-27 18:00N 50°58' E 001°51'4 7.8
2017-Apr-27 17:31N 50°58' E 001°45'917.7
2017-Apr-27 17:00N 51°01' E 001°31'1018.9
2017-Apr-27 16:30N 51°07' E 001°20'1 1.0
2017-Apr-27 15:56N 51°07' E 001°20'0 0.0
2017-Apr-27 15:30N 51°07' E 001°20'612.5
2017-Apr-27 15:00N 51°06' E 001°30'1615.6
2017-Apr-27 14:00N 50°58' E 001°51'0 0.0
2017-Apr-27 13:25N 50°58' E 001°51'1 2.4
2017-Apr-27 13:01N 50°58' E 001°50'1019.7
2017-Apr-27 12:30N 51°01' E 001°35'1020.1
2017-Apr-27 12:00N 51°07' E 001°21'1 1.2
2017-Apr-27 11:12N 51°07' E 001°20'1 5.5
2017-Apr-27 11:00N 51°07' E 001°22'918.6
2017-Apr-27 10:30N 51°03' E 001°35'917.9
2017-Apr-27 10:00N 50°58' E 001°47'2 5.0
2017-Apr-27 09:30N 50°58' E 001°51'0 0.0
2017-Apr-27 09:00N 50°58' E 001°51'4 8.0
2017-Apr-27 08:31N 50°58' E 001°45'917.3
2017-Apr-27 08:00N 51°01' E 001°32'1018.1
2017-Apr-27 07:29N 51°07' E 001°20'0 0.1
2017-Apr-27 06:19N 51°07' E 001°20'3 9.2
2017-Apr-27 06:00N 51°06' E 001°24'1019.2
2017-Apr-27 05:30N 51°01' E 001°37'917.9
2017-Apr-27 05:00N 50°58' E 001°51'0 0.5
2017-Apr-27 04:30N 50°58' E 001°51'0 0.0
2017-Apr-27 04:00N 50°58' E 001°51'1 1.5
2017-Apr-27 03:30N 50°58' E 001°50'917.1
2017-Apr-27 03:00N 51°00' E 001°37'918.3
2017-Apr-27 02:30N 51°05' E 001°25'4 6.2
2017-Apr-27 01:56N 51°07' E 001°20'0 0.0
2017-Apr-27 01:28N 51°07' E 001°20'0 0.1
2017-Apr-27 00:59N 51°07' E 001°20'612.1
2017-Apr-27 00:31N 51°07' E 001°29'816.9
2017-Apr-27 00:01N 51°02' E 001°40'815.3
2017-Apr-26 23:30N 50°58' E 001°51'1 1.2
2017-Apr-26 23:00N 50°58' E 001°52'0 0.1
2017-Apr-26 22:30N 50°58' E 001°52'714.5
2017-Apr-26 22:00N 50°59' E 001°40'918.0
2017-Apr-26 21:31N 51°03' E 001°28'6 5.4
2017-Apr-26 20:21N 51°07' E 001°20'3 9.8
2017-Apr-26 20:00N 51°06' E 001°25'918.8
2017-Apr-26 19:30N 51°01' E 001°37'918.1
2017-Apr-26 19:01N 50°58' E 001°51'0 0.4
2017-Apr-26 18:30N 50°58' E 001°51'0 0.1
2017-Apr-26 18:00N 50°58' E 001°51'714.7
2017-Apr-26 17:30N 50°59' E 001°39'1019.2
2017-Apr-26 17:01N 51°04' E 001°27'5 6.0
2017-Apr-26 16:08N 51°07' E 001°20'0 0.0
2017-Apr-26 15:48N 51°07' E 001°20'310.3
2017-Apr-26 15:30N 51°06' E 001°25'918.7
2017-Apr-26 15:01N 51°01' E 001°37'917.6
2017-Apr-26 14:30N 50°58' E 001°50'1 0.6
2017-Apr-26 13:30N 50°58' E 001°51'816.6
2017-Apr-26 13:00N 50°59' E 001°38'1019.8
2017-Apr-26 12:30N 51°05' E 001°25'4 3.8
2017-Apr-26 11:26N 51°07' E 001°20'410.3
2017-Apr-26 11:00N 51°07' E 001°27'816.6
2017-Apr-26 10:30N 51°02' E 001°38'815.9
2017-Apr-26 10:00N 50°58' E 001°49'1 2.5
2017-Apr-26 09:29N 50°58' E 001°51'0 0.0
2017-Apr-26 08:59N 50°58' E 001°51'2 3.5
2017-Apr-26 08:30N 50°58' E 001°48'917.7
2017-Apr-26 08:00N 50°60' E 001°34'1019.2
2017-Apr-26 07:30N 51°06' E 001°23'2 2.7
2017-Apr-26 06:38N 51°07' E 001°20'0 0.0
2017-Apr-26 06:28N 51°07' E 001°20'2 4.5
2017-Apr-26 06:00N 51°07' E 001°23'918.5
2017-Apr-26 05:30N 51°02' E 001°35'917.1
2017-Apr-26 05:01N 50°58' E 001°48'2 4.0
2017-Apr-26 04:31N 50°58' E 001°51'0 0.0
2017-Apr-26 04:00N 50°58' E 001°51'3 5.7
2017-Apr-26 03:31N 50°58' E 001°46'816.6
2017-Apr-26 03:00N 51°01' E 001°34'917.4
2017-Apr-26 02:30N 51°06' E 001°23'2 1.4
2017-Apr-26 01:00N 51°07' E 001°20'611.4
2017-Apr-26 00:30N 51°06' E 001°29'918.6
2017-Apr-26 00:00N 50°60' E 001°40'713.9
2017-Apr-25 23:31N 50°58' E 001°51'0 0.4
2017-Apr-25 23:00N 50°58' E 001°51'1 1.9
2017-Apr-25 22:30N 50°58' E 001°50'1019.0
2017-Apr-25 21:58N 50°59' E 001°33'817.4
2017-Apr-25 21:31N 51°05' E 001°25'4 3.0
2017-Apr-25 20:18N 51°07' E 001°20'312.2
2017-Apr-25 20:00N 51°07' E 001°26'1019.2
2017-Apr-25 19:30N 51°02' E 001°39'816.7
2017-Apr-25 19:00N 50°58' E 001°51'0 0.4
2017-Apr-25 18:30N 50°58' E 001°51'1 2.3
2017-Apr-25 18:01N 50°58' E 001°49'816.6
2017-Apr-25 17:31N 51°00' E 001°36'918.8
2017-Apr-25 17:01N 51°06' E 001°24'3 2.7
2017-Apr-25 15:48N 51°07' E 001°20'3 9.5
2017-Apr-25 15:31N 51°07' E 001°24'918.7
2017-Apr-25 15:00N 51°02' E 001°38'917.6
2017-Apr-25 14:31N 50°58' E 001°50'1 0.6
2017-Apr-25 13:30N 50°58' E 001°51'816.0
2017-Apr-25 13:00N 50°60' E 001°38'1019.6
2017-Apr-25 12:30N 51°05' E 001°26'4 3.5
2017-Apr-25 11:19N 51°07' E 001°20'3 9.8
2017-Apr-25 11:01N 51°07' E 001°25'918.0
2017-Apr-25 10:31N 51°03' E 001°38'816.2
2017-Apr-25 10:00N 50°58' E 001°48'2 3.1
2017-Apr-25 09:30N 50°58' E 001°51'0 0.0
2017-Apr-25 09:00N 50°58' E 001°51'611.5
2017-Apr-25 08:30N 50°58' E 001°42'816.2
2017-Apr-25 08:00N 51°01' E 001°30'817.0
2017-Apr-25 07:31N 51°07' E 001°21'1 0.9
2017-Apr-25 06:38N 51°07' E 001°20'0 0.2
2017-Apr-25 06:22N 51°07' E 001°20'412.1
2017-Apr-25 06:00N 51°06' E 001°27'917.5
2017-Apr-25 05:31N 51°01' E 001°38'816.2
2017-Apr-25 05:00N 50°58' E 001°50'1 1.1
2017-Apr-25 04:30N 50°58' E 001°51'0 0.0
2017-Apr-25 04:00N 50°58' E 001°51'5 9.8
2017-Apr-25 03:31N 50°58' E 001°43'815.1
2017-Apr-25 03:00N 50°58' E 001°31'918.1
2017-Apr-25 02:31N 51°06' E 001°23'3 5.1
2017-Apr-25 01:59N 51°07' E 001°20'0 0.0
2017-Apr-25 01:29N 51°07' E 001°20'3 7.2
2017-Apr-25 01:00N 51°07' E 001°25'816.1
2017-Apr-25 00:30N 51°02' E 001°36'815.3
2017-Apr-25 00:00N 50°58' E 001°46'3 5.8
2017-Apr-24 23:30N 50°58' E 001°51'0 0.0
2017-Apr-24 23:01N 50°58' E 001°51'5 9.2
2017-Apr-24 22:30N 50°58' E 001°44'1020.4
2017-Apr-24 22:00N 51°01' E 001°28'8 5.8
2017-Apr-24 20:36N 51°07' E 001°20'0 0.0
2017-Apr-24 20:18N 51°07' E 001°20'0 0.6
2017-Apr-24 19:59N 51°07' E 001°20'815.9
2017-Apr-24 19:30N 51°04' E 001°31'1019.7
2017-Apr-24 19:00N 50°58' E 001°44'4 8.7
2017-Apr-24 18:30N 50°58' E 001°51'0 0.0
2017-Apr-24 18:00N 50°58' E 001°51'611.6
2017-Apr-24 17:30N 50°58' E 001°42'714.0
2017-Apr-24 17:00N 50°60' E 001°31'917.7
2017-Apr-24 16:30N 51°07' E 001°22'2 2.4
2017-Apr-24 15:50N 51°07' E 001°20'0 0.7
2017-Apr-24 15:28N 51°07' E 001°20'818.1
2017-Apr-24 15:00N 51°04' E 001°32'1019.6
2017-Apr-24 14:30N 50°58' E 001°45'4 3.8
2017-Apr-24 13:30N 50°58' E 001°51'5 9.7
2017-Apr-24 13:00N 50°58' E 001°43'1020.2
2017-Apr-24 12:31N 51°03' E 001°29'711.4
2017-Apr-24 11:52N 51°07' E 001°20'0 0.0
2017-Apr-24 11:28N 51°07' E 001°20'3 5.6
2017-Apr-24 11:00N 51°07' E 001°24'816.7
2017-Apr-24 10:30N 51°03' E 001°36'917.5
2017-Apr-24 10:00N 50°58' E 001°47'2 4.4
2017-Apr-24 09:29N 50°58' E 001°51'0 0.0
2017-Apr-24 09:00N 50°58' E 001°51'1 1.6
2017-Apr-24 08:31N 50°58' E 001°50'1020.2
2017-Apr-24 08:00N 51°01' E 001°34'918.3
2017-Apr-24 07:30N 51°07' E 001°23'2 1.9
2017-Apr-24 06:33N 51°07' E 001°20'0 0.3
2017-Apr-24 06:30N 51°07' E 001°20'612.7
2017-Apr-24 06:00N 51°05' E 001°29'918.5
2017-Apr-24 05:31N 50°60' E 001°41'612.9
2017-Apr-24 05:00N 50°58' E 001°51'0 0.1
2017-Apr-24 04:30N 50°58' E 001°51'0 0.0
2017-Apr-24 04:00N 50°58' E 001°51'0 0.2
2017-Apr-24 03:30N 50°58' E 001°51'815.0
2017-Apr-24 03:00N 50°59' E 001°39'1020.0
2017-Apr-24 02:31N 51°05' E 001°26'5 4.2
2017-Apr-24 01:22N 51°07' E 001°20'3 9.0
2017-Apr-24 01:00N 51°07' E 001°25'816.8
2017-Apr-24 00:31N 51°01' E 001°35'713.3
2017-Apr-24 00:00N 50°58' E 001°44'4 8.7
2017-Apr-23 23:30N 50°58' E 001°51'0 0.0
2017-Apr-23 23:00N 50°58' E 001°51'0 0.5
2017-Apr-23 22:30N 50°58' E 001°51'917.2
2017-Apr-23 22:00N 50°60' E 001°38'1019.8
2017-Apr-23 21:31N 51°06' E 001°25'4 3.3
2017-Apr-23 20:24N 51°07' E 001°20'1 3.0
2017-Apr-23 20:00N 51°07' E 001°22'917.6
2017-Apr-23 19:30N 51°02' E 001°34'918.7
2017-Apr-23 19:00N 50°58' E 001°47'3 5.1
2017-Apr-23 18:30N 50°58' E 001°51'0 0.0
2017-Apr-23 18:00N 50°58' E 001°51'4 7.8
2017-Apr-23 17:30N 50°58' E 001°45'917.9
2017-Apr-23 17:00N 51°02' E 001°32'816.8
2017-Apr-23 16:30N 51°06' E 001°21'1 2.2
2017-Apr-23 15:59N 51°07' E 001°20'0 0.2
2017-Apr-23 15:30N 51°07' E 001°20'816.5
2017-Apr-23 15:00N 51°04' E 001°32'1313.3
2017-Apr-23 14:00N 50°58' E 001°51'0 0.0
2017-Apr-23 13:30N 50°58' E 001°51'2 3.2
2017-Apr-23 13:01N 50°58' E 001°48'918.6
2017-Apr-23 12:30N 51°00' E 001°34'1020.2
2017-Apr-23 12:01N 51°06' E 001°21'1 1.4
2017-Apr-23 11:04N 51°07' E 001°20'0 1.0
2017-Apr-23 11:00N 51°07' E 001°20'714.8
2017-Apr-23 10:31N 51°06' E 001°32'1019.3
2017-Apr-23 10:00N 50°59' E 001°43'510.4
2017-Apr-23 09:30N 50°58' E 001°51'0 0.0
2017-Apr-23 08:50N 50°58' E 001°51'310.1
2017-Apr-23 08:30N 50°58' E 001°46'918.9
2017-Apr-23 08:00N 51°01' E 001°31'917.9
2017-Apr-23 07:30N 51°07' E 001°21'1 0.4
2017-Apr-23 05:58N 51°07' E 001°20'612.4
2017-Apr-23 05:30N 51°05' E 001°29'1019.6
2017-Apr-23 05:01N 50°60' E 001°41'612.6
2017-Apr-23 04:30N 50°58' E 001°51'0 0.0
2017-Apr-23 04:00N 50°58' E 001°51'0 0.5
2017-Apr-23 03:30N 50°58' E 001°51'816.1
2017-Apr-23 03:01N 50°59' E 001°38'1019.9
2017-Apr-23 02:31N 51°05' E 001°25'4 5.5
2017-Apr-23 01:45N 51°07' E 001°20'0 0.0
2017-Apr-23 01:10N 51°07' E 001°20'0 0.7
2017-Apr-23 01:00N 51°07' E 001°20'713.5
2017-Apr-23 00:31N 51°07' E 001°31'714.9
2017-Apr-23 00:01N 51°01' E 001°39'815.4
2017-Apr-22 23:30N 50°58' E 001°50'0 0.9
2017-Apr-22 22:59N 50°58' E 001°51'0 0.1
2017-Apr-22 22:30N 50°58' E 001°51'815.1
2017-Apr-22 22:01N 50°59' E 001°39'918.0
2017-Apr-22 21:31N 51°04' E 001°27'5 4.5
2017-Apr-22 20:18N 51°07' E 001°20'413.9
2017-Apr-22 20:00N 51°06' E 001°26'1019.4
2017-Apr-22 19:30N 51°00' E 001°39'815.8
2017-Apr-22 19:01N 50°58' E 001°51'0 0.5
2017-Apr-22 18:30N 50°58' E 001°51'0 0.0
2017-Apr-22 18:00N 50°58' E 001°51'510.2
2017-Apr-22 17:30N 50°58' E 001°43'918.8
2017-Apr-22 17:00N 51°03' E 001°30'8 5.7
2017-Apr-22 15:39N 51°07' E 001°20'0 0.6
2017-Apr-22 15:30N 51°07' E 001°20'816.6
2017-Apr-22 15:01N 51°04' E 001°32'1020.1
2017-Apr-22 14:30N 50°58' E 001°45'4 3.7
2017-Apr-22 13:30N 50°58' E 001°51'4 8.8
2017-Apr-22 13:00N 50°58' E 001°44'918.9
2017-Apr-22 12:30N 51°03' E 001°31'8 5.9
2017-Apr-22 11:04N 51°07' E 001°20'0 1.5
2017-Apr-22 11:00N 51°07' E 001°20'815.9
2017-Apr-22 10:30N 51°04' E 001°32'1019.5
2017-Apr-22 10:01N 50°59' E 001°44'5 8.7
2017-Apr-22 09:29N 50°58' E 001°51'0 0.0
2017-Apr-22 09:00N 50°58' E 001°51'3 5.5
2017-Apr-22 08:30N 50°58' E 001°47'1019.6
2017-Apr-22 08:00N 51°02' E 001°32'917.6
2017-Apr-22 07:31N 51°07' E 001°21'1 1.0
2017-Apr-22 06:38N 51°07' E 001°20'0 0.1
2017-Apr-22 06:29N 51°07' E 001°20'510.6
2017-Apr-22 06:01N 51°05' E 001°28'917.9
2017-Apr-22 05:30N 51°00' E 001°39'815.3
2017-Apr-22 05:01N 50°58' E 001°51'0 0.3
2017-Apr-22 04:30N 50°58' E 001°51'0 0.0
2017-Apr-22 04:00N 50°58' E 001°51'3 6.2
2017-Apr-22 03:30N 50°58' E 001°46'816.1
2017-Apr-22 03:00N 51°01' E 001°34'815.8
2017-Apr-22 02:30N 51°06' E 001°24'3 5.6
2017-Apr-22 01:57N 51°07' E 001°20'0 0.0
2017-Apr-22 01:31N 51°07' E 001°20'0 0.0
2017-Apr-22 00:59N 51°07' E 001°20'510.3
2017-Apr-22 00:31N 51°06' E 001°27'917.8
2017-Apr-22 00:00N 51°00' E 001°39'815.8
2017-Apr-21 23:31N 50°58' E 001°51'0 0.4
2017-Apr-21 23:00N 50°58' E 001°51'1 2.4
2017-Apr-21 22:30N 50°58' E 001°49'1019.5
2017-Apr-21 22:00N 50°58' E 001°34'918.0
2017-Apr-21 21:30N 51°05' E 001°25'4 6.4
2017-Apr-21 20:56N 51°07' E 001°20'0 0.0
2017-Apr-21 20:29N 51°07' E 001°20'3 6.1
2017-Apr-21 20:00N 51°07' E 001°25'917.6
2017-Apr-21 19:30N 51°02' E 001°36'816.2
2017-Apr-21 19:00N 50°58' E 001°48'2 4.0
2017-Apr-21 18:30N 50°58' E 001°51'0 0.0
2017-Apr-21 18:00N 50°58' E 001°51'611.7
2017-Apr-21 17:31N 50°58' E 001°42'917.2
2017-Apr-21 17:01N 51°02' E 001°30'815.8
2017-Apr-21 16:30N 51°07' E 001°20'0 0.9
2017-Apr-21 15:59N 51°07' E 001°20'0 0.2
2017-Apr-21 15:26N 51°07' E 001°20'614.6
2017-Apr-21 15:00N 51°05' E 001°29'1019.7
2017-Apr-21 14:30N 50°59' E 001°42'6 5.7
2017-Apr-21 13:30N 50°58' E 001°51'2 4.6
2017-Apr-21 13:01N 50°58' E 001°47'917.8
2017-Apr-21 12:31N 51°01' E 001°34'1019.3
2017-Apr-21 12:00N 51°07' E 001°21'1 0.9
2017-Apr-21 11:03N 51°07' E 001°20'0 2.5
2017-Apr-21 10:58N 51°07' E 001°20'714.9
2017-Apr-21 10:31N 51°04' E 001°30'918.6
2017-Apr-21 10:00N 50°59' E 001°42'611.1
2017-Apr-21 09:30N 50°58' E 001°51'0 0.0
2017-Apr-21 09:00N 50°58' E 001°51'3 5.3
2017-Apr-21 08:30N 50°58' E 001°47'917.8
2017-Apr-21 08:00N 51°00' E 001°33'817.0
2017-Apr-21 07:30N 51°06' E 001°24'3 2.3
2017-Apr-21 06:22N 51°07' E 001°20'2 6.8
2017-Apr-21 06:00N 51°07' E 001°24'918.1
2017-Apr-21 05:30N 51°02' E 001°36'816.3
2017-Apr-21 05:00N 50°58' E 001°47'2 4.5
2017-Apr-21 04:30N 50°58' E 001°51'0 0.0
2017-Apr-21 03:59N 50°58' E 001°51'2 4.5
2017-Apr-21 03:31N 50°58' E 001°48'917.6
2017-Apr-21 03:01N 51°01' E 001°35'816.7
2017-Apr-21 02:30N 51°06' E 001°23'3 2.6
2017-Apr-21 01:31N 51°07' E 001°20'0 0.0
2017-Apr-21 01:06N 51°07' E 001°20'0 0.0
2017-Apr-21 00:58N 51°07' E 001°20'510.4
2017-Apr-21 00:31N 51°06' E 001°27'816.7
2017-Apr-21 00:01N 51°01' E 001°38'816.5
2017-Apr-20 23:30N 50°58' E 001°50'1 1.3
2017-Apr-20 23:00N 50°58' E 001°51'0 0.0
2017-Apr-20 22:30N 50°58' E 001°51'713.6
2017-Apr-20 22:00N 50°59' E 001°40'917.7
2017-Apr-20 21:30N 51°03' E 001°28'713.0
2017-Apr-20 21:00N 51°07' E 001°20'0 0.0
2017-Apr-20 20:22N 51°07' E 001°20'1 3.3
2017-Apr-20 20:00N 51°07' E 001°22'917.8
2017-Apr-20 19:31N 51°03' E 001°35'917.5
2017-Apr-20 19:01N 50°58' E 001°46'3 6.6
2017-Apr-20 18:29N 50°58' E 001°51'0 0.0
2017-Apr-20 18:00N 50°58' E 001°51'4 8.8
2017-Apr-20 17:30N 50°58' E 001°44'1019.3
2017-Apr-20 17:00N 51°02' E 001°30'816.4
2017-Apr-20 16:30N 51°07' E 001°20'0 0.0
2017-Apr-20 15:36N 51°07' E 001°20'0 1.3
2017-Apr-20 15:31N 51°07' E 001°20'816.6
2017-Apr-20 15:00N 51°04' E 001°32'1019.6
2017-Apr-20 14:31N 50°58' E 001°45'  
Track history (hours):
 
Tides and Currents Weather Stations Pressure Air Temp Water Temp Dewpoint Dewpoint Depression Visibility Wind Speed Wind Dir Waves Ship Positions

Pride Of Kent

Operator: P & O Ferries

Last reported at 2017-Apr-30 14:30 UTC. Time now 2017-Apr-30 14:49 UTC.
Position N 50°60' E 001°41'.

Length 180 m; draft 6 m.

Type: Passenger vessel. MMSI: 232009000.

Date/timePositionNaut miles runAvg speedWind from/ knotsBaromVisibWave heightAir tempDewpointWater temp
2017-Apr-30 14:30N 50°60' E 001°41'7 6.8
2017-Apr-30 13:30N 50°58' E 001°51'1 2.4
2017-Apr-30 13:00N 50°58' E 001°49'1020.1
2017-Apr-30 12:30N 51°00' E 001°34'1019.2
2017-Apr-30 12:01N 51°07' E 001°22'2 2.7
2017-Apr-30 11:27N 51°07' E 001°20'0 0.6
2017-Apr-30 11:00N 51°07' E 001°20'816.2
2017-Apr-30 10:31N 51°04' E 001°31'1020.2
2017-Apr-30 10:00N 50°58' E 001°45'4 7.6
2017-Apr-30 09:30N 50°58' E 001°51'0 0.0
2017-Apr-30 09:00N 50°58' E 001°51'3 6.1
2017-Apr-30 08:31N 50°58' E 001°46'917.2
2017-Apr-30 08:00N 51°01' E 001°33'918.8
2017-Apr-30 07:30N 51°07' E 001°21'1 0.6
2017-Apr-30 05:55N 51°07' E 001°20'410.4
2017-Apr-30 05:30N 51°06' E 001°27'1019.5
2017-Apr-30 05:00N 51°01' E 001°39'815.3
2017-Apr-30 04:31N 50°58' E 001°51'0 0.2
2017-Apr-30 03:59N 50°58' E 001°51'0 0.7
2017-Apr-30 03:30N 50°58' E 001°51'917.9
2017-Apr-30 03:00N 50°60' E 001°36'917.1
2017-Apr-30 02:30N 51°05' E 001°26'4 8.6
2017-Apr-30 02:00N 51°07' E 001°20'0 0.0
2017-Apr-30 01:25N 51°07' E 001°20'0 0.0
2017-Apr-30 01:00N 51°07' E 001°20'3 6.0
2017-Apr-30 00:31N 51°07' E 001°25'918.6
2017-Apr-30 00:01N 51°01' E 001°37'816.6
2017-Apr-29 23:30N 50°58' E 001°49'1 2.5
2017-Apr-29 23:00N 50°58' E 001°51'0 0.0
2017-Apr-29 22:30N 50°58' E 001°51'713.3
2017-Apr-29 22:00N 50°58' E 001°40'816.4
2017-Apr-29 21:30N 51°02' E 001°29'8 6.5
2017-Apr-29 20:20N 51°07' E 001°20'0 0.0
2017-Apr-29 19:59N 51°07' E 001°20'613.4
2017-Apr-29 19:30N 51°05' E 001°30'918.5
2017-Apr-29 19:01N 50°60' E 001°41'612.8
2017-Apr-29 18:31N 50°58' E 001°51'0 0.0
2017-Apr-29 18:00N 50°58' E 001°51'1 1.4
2017-Apr-29 17:30N 50°58' E 001°50'1018.1
2017-Apr-29 16:59N 50°59' E 001°35'918.5
2017-Apr-29 16:31N 51°05' E 001°25'4 7.7
2017-Apr-29 16:00N 51°07' E 001°20'0 0.2
2017-Apr-29 15:27N 51°07' E 001°20'715.7
2017-Apr-29 15:00N 51°05' E 001°31'918.4
2017-Apr-29 14:30N 50°60' E 001°42'6 5.7
2017-Apr-29 13:30N 50°58' E 001°51'3 5.2
2017-Apr-29 13:00N 50°58' E 001°47'1020.1
2017-Apr-29 12:30N 51°02' E 001°32'918.4
2017-Apr-29 12:00N 51°07' E 001°20'1 1.1
2017-Apr-29 11:30N 51°07' E 001°20'0 0.2
2017-Apr-29 10:58N 51°07' E 001°20'816.7
2017-Apr-29 10:30N 51°04' E 001°32'1020.0
2017-Apr-29 10:00N 50°58' E 001°44'4 8.4
2017-Apr-29 09:30N 50°58' E 001°51'0 0.0
2017-Apr-29 09:00N 50°58' E 001°51'2 4.2
2017-Apr-29 08:30N 50°58' E 001°48'816.6
2017-Apr-29 08:00N 51°00' E 001°35'918.5
2017-Apr-29 07:30N 51°06' E 001°24'3 2.1
2017-Apr-29 06:19N 51°07' E 001°20'2 7.8
2017-Apr-29 06:01N 51°07' E 001°24'917.5
2017-Apr-29 05:31N 51°02' E 001°35'917.2
2017-Apr-29 05:01N 50°58' E 001°47'2 4.5
2017-Apr-29 04:31N 50°58' E 001°51'0 0.0
2017-Apr-29 04:01N 50°58' E 001°51'611.5
2017-Apr-29 03:30N 50°58' E 001°42'917.9
2017-Apr-29 03:01N 51°03' E 001°30'812.0
2017-Apr-29 02:22N 51°07' E 001°20'0 0.0
2017-Apr-29 01:55N 51°07' E 001°20'2 5.3
2017-Apr-29 01:30N 51°07' E 001°23'918.8
2017-Apr-29 01:00N 51°02' E 001°36'816.9
2017-Apr-29 00:30N 50°58' E 001°48'2 4.3
2017-Apr-29 00:01N 50°58' E 001°52'0 0.0
2017-Apr-28 23:31N 50°58' E 001°52'4 7.2
2017-Apr-28 23:01N 50°58' E 001°46'917.4
2017-Apr-28 22:30N 51°00' E 001°33'917.4
2017-Apr-28 22:00N 51°06' E 001°23'2 3.2
2017-Apr-28 21:24N 51°07' E 001°20'0 0.3
2017-Apr-28 21:00N 51°07' E 001°20'815.9
2017-Apr-28 20:31N 51°05' E 001°32'918.1
2017-Apr-28 20:01N 50°59' E 001°43'610.9
2017-Apr-28 19:30N 50°58' E 001°52'0 0.0
2017-Apr-28 19:01N 50°58' E 001°52'0 0.0
2017-Apr-28 18:31N 50°58' E 001°52'4 8.5
2017-Apr-28 18:00N 50°58' E 001°45'816.6
2017-Apr-28 17:30N 51°02' E 001°33'917.7
2017-Apr-28 17:00N 51°07' E 001°22'1 1.2
2017-Apr-28 16:03N 51°07' E 001°20'0 1.0
2017-Apr-28 15:59N 51°07' E 001°20'510.2
2017-Apr-28 15:31N 51°06' E 001°27'917.5
2017-Apr-28 15:01N 51°01' E 001°39'8 8.2
2017-Apr-28 14:00N 50°58' E 001°51'0 0.0
2017-Apr-28 13:29N 50°58' E 001°51'612.7
2017-Apr-28 13:00N 50°59' E 001°41'918.5
2017-Apr-28 12:30N 51°03' E 001°29'7 5.4
2017-Apr-28 11:14N 51°07' E 001°20'1 6.1
2017-Apr-28 11:01N 51°07' E 001°22'917.6
2017-Apr-28 10:30N 51°03' E 001°35'917.7
2017-Apr-28 10:01N 50°58' E 001°46'3 5.9
2017-Apr-28 09:30N 50°58' E 001°51'0 0.0
2017-Apr-28 09:00N 50°58' E 001°51'5 9.1
2017-Apr-28 08:30N 50°58' E 001°44'816.4
2017-Apr-28 08:01N 51°01' E 001°32'917.5
2017-Apr-28 07:30N 51°07' E 001°21'1 0.7
2017-Apr-28 06:20N 51°07' E 001°20'3 8.2
2017-Apr-28 06:00N 51°07' E 001°24'917.6
2017-Apr-28 05:30N 51°02' E 001°36'917.1
2017-Apr-28 05:00N 50°58' E 001°48'2 3.4
2017-Apr-28 04:30N 50°58' E 001°51'0 0.0
2017-Apr-28 04:00N 50°58' E 001°51'0 1.0
2017-Apr-28 03:30N 50°58' E 001°50'917.5
2017-Apr-28 03:00N 51°00' E 001°37'918.5
2017-Apr-28 02:30N 51°06' E 001°25'4 7.0
2017-Apr-28 02:00N 51°07' E 001°20'0 0.0
2017-Apr-28 01:16N 51°07' E 001°20'0 0.1
2017-Apr-28 00:56N 51°07' E 001°20'511.0
2017-Apr-28 00:31N 51°07' E 001°27'918.4
2017-Apr-28 00:01N 51°01' E 001°39'816.0
2017-Apr-27 23:30N 50°58' E 001°51'1 1.3
2017-Apr-27 23:00N 50°58' E 001°52'0 0.0
2017-Apr-27 22:30N 50°58' E 001°52'510.9
2017-Apr-27 22:00N 50°58' E 001°43'917.2
2017-Apr-27 21:30N 51°02' E 001°31'917.1
2017-Apr-27 21:00N 51°07' E 001°20'0 0.3
2017-Apr-27 20:04N 51°07' E 001°20'0 1.4
2017-Apr-27 19:59N 51°07' E 001°20'815.7
2017-Apr-27 19:30N 51°04' E 001°31'918.3
2017-Apr-27 19:00N 50°59' E 001°43'510.4
2017-Apr-27 18:30N 50°58' E 001°51'0 0.0
2017-Apr-27 18:00N 50°58' E 001°51'4 7.8
2017-Apr-27 17:31N 50°58' E 001°45'917.7
2017-Apr-27 17:00N 51°01' E 001°31'1018.9
2017-Apr-27 16:30N 51°07' E 001°20'1 1.0
2017-Apr-27 15:56N 51°07' E 001°20'0 0.0
2017-Apr-27 15:30N 51°07' E 001°20'612.5
2017-Apr-27 15:00N 51°06' E 001°30'1615.6
2017-Apr-27 14:00N 50°58' E 001°51'0 0.0
2017-Apr-27 13:25N 50°58' E 001°51'1 2.4
2017-Apr-27 13:01N 50°58' E 001°50'1019.7
2017-Apr-27 12:30N 51°01' E 001°35'1020.1
2017-Apr-27 12:00N 51°07' E 001°21'1 1.2
2017-Apr-27 11:12N 51°07' E 001°20'1 5.5
2017-Apr-27 11:00N 51°07' E 001°22'918.6
2017-Apr-27 10:30N 51°03' E 001°35'917.9
2017-Apr-27 10:00N 50°58' E 001°47'2 5.0
2017-Apr-27 09:30N 50°58' E 001°51'0 0.0
2017-Apr-27 09:00N 50°58' E 001°51'4 8.0
2017-Apr-27 08:31N 50°58' E 001°45'917.3
2017-Apr-27 08:00N 51°01' E 001°32'1018.1
2017-Apr-27 07:29N 51°07' E 001°20'0 0.1
2017-Apr-27 06:19N 51°07' E 001°20'3 9.2
2017-Apr-27 06:00N 51°06' E 001°24'1019.2
2017-Apr-27 05:30N 51°01' E 001°37'917.9
2017-Apr-27 05:00N 50°58' E 001°51'0 0.5
2017-Apr-27 04:30N 50°58' E 001°51'0 0.0
2017-Apr-27 04:00N 50°58' E 001°51'1 1.5
2017-Apr-27 03:30N 50°58' E 001°50'917.1
2017-Apr-27 03:00N 51°00' E 001°37'918.3
2017-Apr-27 02:30N 51°05' E 001°25'4 6.2
2017-Apr-27 01:56N 51°07' E 001°20'0 0.0
2017-Apr-27 01:28N 51°07' E 001°20'0 0.1
2017-Apr-27 00:59N 51°07' E 001°20'612.1
2017-Apr-27 00:31N 51°07' E 001°29'816.9
2017-Apr-27 00:01N 51°02' E 001°40'815.3
2017-Apr-26 23:30N 50°58' E 001°51'1 1.2
2017-Apr-26 23:00N 50°58' E 001°52'0 0.1
2017-Apr-26 22:30N 50°58' E 001°52'714.5
2017-Apr-26 22:00N 50°59' E 001°40'918.0
2017-Apr-26 21:31N 51°03' E 001°28'6 5.4
2017-Apr-26 20:21N 51°07' E 001°20'3 9.8
2017-Apr-26 20:00N 51°06' E 001°25'918.8
2017-Apr-26 19:30N 51°01' E 001°37'918.1
2017-Apr-26 19:01N 50°58' E 001°51'0 0.4
2017-Apr-26 18:30N 50°58' E 001°51'0 0.1
2017-Apr-26 18:00N 50°58' E 001°51'714.7
2017-Apr-26 17:30N 50°59' E 001°39'1019.2
2017-Apr-26 17:01N 51°04' E 001°27'5 6.0
2017-Apr-26 16:08N 51°07' E 001°20'0 0.0
2017-Apr-26 15:48N 51°07' E 001°20'310.3
2017-Apr-26 15:30N 51°06' E 001°25'918.7
2017-Apr-26 15:01N 51°01' E 001°37'917.6
2017-Apr-26 14:30N 50°58' E 001°50'1 0.6
2017-Apr-26 13:30N 50°58' E 001°51'816.6
2017-Apr-26 13:00N 50°59' E 001°38'1019.8
2017-Apr-26 12:30N 51°05' E 001°25'4 3.8
2017-Apr-26 11:26N 51°07' E 001°20'410.3
2017-Apr-26 11:00N 51°07' E 001°27'816.6
2017-Apr-26 10:30N 51°02' E 001°38'815.9
2017-Apr-26 10:00N 50°58' E 001°49'1 2.5
2017-Apr-26 09:29N 50°58' E 001°51'0 0.0
2017-Apr-26 08:59N 50°58' E 001°51'2 3.5
2017-Apr-26 08:30N 50°58' E 001°48'917.7
2017-Apr-26 08:00N 50°60' E 001°34'1019.2
2017-Apr-26 07:30N 51°06' E 001°23'2 2.7
2017-Apr-26 06:38N 51°07' E 001°20'0 0.0
2017-Apr-26 06:28N 51°07' E 001°20'2 4.5
2017-Apr-26 06:00N 51°07' E 001°23'918.5
2017-Apr-26 05:30N 51°02' E 001°35'917.1
2017-Apr-26 05:01N 50°58' E 001°48'2 4.0
2017-Apr-26 04:31N 50°58' E 001°51'0 0.0
2017-Apr-26 04:00N 50°58' E 001°51'3 5.7
2017-Apr-26 03:31N 50°58' E 001°46'816.6
2017-Apr-26 03:00N 51°01' E 001°34'917.4
2017-Apr-26 02:30N 51°06' E 001°23'2 1.4
2017-Apr-26 01:00N 51°07' E 001°20'611.4
2017-Apr-26 00:30N 51°06' E 001°29'918.6
2017-Apr-26 00:00N 50°60' E 001°40'713.9
2017-Apr-25 23:31N 50°58' E 001°51'0 0.4
2017-Apr-25 23:00N 50°58' E 001°51'1 1.9
2017-Apr-25 22:30N 50°58' E 001°50'1019.0
2017-Apr-25 21:58N 50°59' E 001°33'817.4
2017-Apr-25 21:31N 51°05' E 001°25'4 3.0
2017-Apr-25 20:18N 51°07' E 001°20'312.2
2017-Apr-25 20:00N 51°07' E 001°26'1019.2
2017-Apr-25 19:30N 51°02' E 001°39'816.7
2017-Apr-25 19:00N 50°58' E 001°51'0 0.4
2017-Apr-25 18:30N 50°58' E 001°51'1 2.3
2017-Apr-25 18:01N 50°58' E 001°49'816.6
2017-Apr-25 17:31N 51°00' E 001°36'918.8
2017-Apr-25 17:01N 51°06' E 001°24'3 2.7
2017-Apr-25 15:48N 51°07' E 001°20'3 9.5
2017-Apr-25 15:31N 51°07' E 001°24'918.7
2017-Apr-25 15:00N 51°02' E 001°38'917.6
2017-Apr-25 14:31N 50°58' E 001°50'1 0.6
2017-Apr-25 13:30N 50°58' E 001°51'816.0
2017-Apr-25 13:00N 50°60' E 001°38'1019.6
2017-Apr-25 12:30N 51°05' E 001°26'4 3.5
2017-Apr-25 11:19N 51°07' E 001°20'3 9.8
2017-Apr-25 11:01N 51°07' E 001°25'918.0
2017-Apr-25 10:31N 51°03' E 001°38'816.2
2017-Apr-25 10:00N 50°58' E 001°48'2 3.1
2017-Apr-25 09:30N 50°58' E 001°51'0 0.0
2017-Apr-25 09:00N 50°58' E 001°51'611.5
2017-Apr-25 08:30N 50°58' E 001°42'816.2
2017-Apr-25 08:00N 51°01' E 001°30'817.0
2017-Apr-25 07:31N 51°07' E 001°21'1 0.9
2017-Apr-25 06:38N 51°07' E 001°20'0 0.2
2017-Apr-25 06:22N 51°07' E 001°20'412.1
2017-Apr-25 06:00N 51°06' E 001°27'917.5
2017-Apr-25 05:31N 51°01' E 001°38'816.2
2017-Apr-25 05:00N 50°58' E 001°50'1 1.1
2017-Apr-25 04:30N 50°58' E 001°51'0 0.0
2017-Apr-25 04:00N 50°58' E 001°51'5 9.8
2017-Apr-25 03:31N 50°58' E 001°43'815.1
2017-Apr-25 03:00N 50°58' E 001°31'918.1
2017-Apr-25 02:31N 51°06' E 001°23'3 5.1
2017-Apr-25 01:59N 51°07' E 001°20'0 0.0
2017-Apr-25 01:29N 51°07' E 001°20'3 7.2
2017-Apr-25 01:00N 51°07' E 001°25'816.1
2017-Apr-25 00:30N 51°02' E 001°36'815.3
2017-Apr-25 00:00N 50°58' E 001°46'3 5.8
2017-Apr-24 23:30N 50°58' E 001°51'0 0.0
2017-Apr-24 23:01N 50°58' E 001°51'5 9.2
2017-Apr-24 22:30N 50°58' E 001°44'1020.4
2017-Apr-24 22:00N 51°01' E 001°28'8 5.8
2017-Apr-24 20:36N 51°07' E 001°20'0 0.0
2017-Apr-24 20:18N 51°07' E 001°20'0 0.6
2017-Apr-24 19:59N 51°07' E 001°20'815.9
2017-Apr-24 19:30N 51°04' E 001°31'1019.7
2017-Apr-24 19:00N 50°58' E 001°44'4 8.7
2017-Apr-24 18:30N 50°58' E 001°51'0 0.0
2017-Apr-24 18:00N 50°58' E 001°51'611.6
2017-Apr-24 17:30N 50°58' E 001°42'714.0
2017-Apr-24 17:00N 50°60' E 001°31'917.7
2017-Apr-24 16:30N 51°07' E 001°22'2 2.4
2017-Apr-24 15:50N 51°07' E 001°20'0 0.7
2017-Apr-24 15:28N 51°07' E 001°20'818.1
2017-Apr-24 15:00N 51°04' E 001°32'1019.6
2017-Apr-24 14:30N 50°58' E 001°45'4 3.8
2017-Apr-24 13:30N 50°58' E 001°51'5 9.7
2017-Apr-24 13:00N 50°58' E 001°43'1020.2
2017-Apr-24 12:31N 51°03' E 001°29'711.4
2017-Apr-24 11:52N 51°07' E 001°20'0 0.0
2017-Apr-24 11:28N 51°07' E 001°20'3 5.6
2017-Apr-24 11:00N 51°07' E 001°24'816.7
2017-Apr-24 10:30N 51°03' E 001°36'917.5
2017-Apr-24 10:00N 50°58' E 001°47'2 4.4
2017-Apr-24 09:29N 50°58' E 001°51'0 0.0
2017-Apr-24 09:00N 50°58' E 001°51'1 1.6
2017-Apr-24 08:31N 50°58' E 001°50'1020.2
2017-Apr-24 08:00N 51°01' E 001°34'918.3
2017-Apr-24 07:30N 51°07' E 001°23'2 1.9
2017-Apr-24 06:33N 51°07' E 001°20'0 0.3
2017-Apr-24 06:30N 51°07' E 001°20'612.7
2017-Apr-24 06:00N 51°05' E 001°29'918.5
2017-Apr-24 05:31N 50°60' E 001°41'612.9
2017-Apr-24 05:00N 50°58' E 001°51'0 0.1
2017-Apr-24 04:30N 50°58' E 001°51'0 0.0
2017-Apr-24 04:00N 50°58' E 001°51'0 0.2
2017-Apr-24 03:30N 50°58' E 001°51'815.0
2017-Apr-24 03:00N 50°59' E 001°39'1020.0
2017-Apr-24 02:31N 51°05' E 001°26'5 4.2
2017-Apr-24 01:22N 51°07' E 001°20'3 9.0
2017-Apr-24 01:00N 51°07' E 001°25'816.8
2017-Apr-24 00:31N 51°01' E 001°35'713.3
2017-Apr-24 00:00N 50°58' E 001°44'4 8.7
2017-Apr-23 23:30N 50°58' E 001°51'0 0.0
2017-Apr-23 23:00N 50°58' E 001°51'0 0.5
2017-Apr-23 22:30N 50°58' E 001°51'917.2
2017-Apr-23 22:00N 50°60' E 001°38'1019.8
2017-Apr-23 21:31N 51°06' E 001°25'4 3.3
2017-Apr-23 20:24N 51°07' E 001°20'1 3.0
2017-Apr-23 20:00N 51°07' E 001°22'917.6
2017-Apr-23 19:30N 51°02' E 001°34'918.7
2017-Apr-23 19:00N 50°58' E 001°47'3 5.1
2017-Apr-23 18:30N 50°58' E 001°51'0 0.0
2017-Apr-23 18:00N 50°58' E 001°51'4 7.8
2017-Apr-23 17:30N 50°58' E 001°45'917.9
2017-Apr-23 17:00N 51°02' E 001°32'816.8
2017-Apr-23 16:30N 51°06' E 001°21'1 2.2
2017-Apr-23 15:59N 51°07' E 001°20'0 0.2
2017-Apr-23 15:30N 51°07' E 001°20'816.5
2017-Apr-23 15:00N 51°04' E 001°32'1313.3
2017-Apr-23 14:00N 50°58' E 001°51'0 0.0
2017-Apr-23 13:30N 50°58' E 001°51'2 3.2
2017-Apr-23 13:01N 50°58' E 001°48'918.6
2017-Apr-23 12:30N 51°00' E 001°34'1020.2
2017-Apr-23 12:01N 51°06' E 001°21'1 1.4
2017-Apr-23 11:04N 51°07' E 001°20'0 1.0
2017-Apr-23 11:00N 51°07' E 001°20'714.8
2017-Apr-23 10:31N 51°06' E 001°32'1019.3
2017-Apr-23 10:00N 50°59' E 001°43'510.4
2017-Apr-23 09:30N 50°58' E 001°51'0 0.0
2017-Apr-23 08:50N 50°58' E 001°51'310.1
2017-Apr-23 08:30N 50°58' E 001°46'918.9
2017-Apr-23 08:00N 51°01' E 001°31'917.9
2017-Apr-23 07:30N 51°07' E 001°21'1 0.4
2017-Apr-23 05:58N 51°07' E 001°20'612.4
2017-Apr-23 05:30N 51°05' E 001°29'1019.6
2017-Apr-23 05:01N 50°60' E 001°41'612.6
2017-Apr-23 04:30N 50°58' E 001°51'0 0.0
2017-Apr-23 04:00N 50°58' E 001°51'0 0.5
2017-Apr-23 03:30N 50°58' E 001°51'816.1
2017-Apr-23 03:01N 50°59' E 001°38'1019.9
2017-Apr-23 02:31N 51°05' E 001°25'4 5.5
2017-Apr-23 01:45N 51°07' E 001°20'0 0.0
2017-Apr-23 01:10N 51°07' E 001°20'0 0.7
2017-Apr-23 01:00N 51°07' E 001°20'713.5
2017-Apr-23 00:31N 51°07' E 001°31'714.9
2017-Apr-23 00:01N 51°01' E 001°39'815.4
2017-Apr-22 23:30N 50°58' E 001°50'0 0.9
2017-Apr-22 22:59N 50°58' E 001°51'0 0.1
2017-Apr-22 22:30N 50°58' E 001°51'815.1
2017-Apr-22 22:01N 50°59' E 001°39'918.0
2017-Apr-22 21:31N 51°04' E 001°27'5 4.5
2017-Apr-22 20:18N 51°07' E 001°20'413.9
2017-Apr-22 20:00N 51°06' E 001°26'1019.4
2017-Apr-22 19:30N 51°00' E 001°39'815.8
2017-Apr-22 19:01N 50°58' E 001°51'0 0.5
2017-Apr-22 18:30N 50°58' E 001°51'0 0.0
2017-Apr-22 18:00N 50°58' E 001°51'510.2
2017-Apr-22 17:30N 50°58' E 001°43'918.8
2017-Apr-22 17:00N 51°03' E 001°30'8 5.7
2017-Apr-22 15:39N 51°07' E 001°20'0 0.6
2017-Apr-22 15:30N 51°07' E 001°20'816.6
2017-Apr-22 15:01N 51°04' E 001°32'1020.1
2017-Apr-22 14:30N 50°58' E 001°45'4 3.7
2017-Apr-22 13:30N 50°58' E 001°51'4 8.8
2017-Apr-22 13:00N 50°58' E 001°44'918.9
2017-Apr-22 12:30N 51°03' E 001°31'8 5.9
2017-Apr-22 11:04N 51°07' E 001°20'0 1.5
2017-Apr-22 11:00N 51°07' E 001°20'815.9
2017-Apr-22 10:30N 51°04' E 001°32'1019.5
2017-Apr-22 10:01N 50°59' E 001°44'5 8.7
2017-Apr-22 09:29N 50°58' E 001°51'0 0.0
2017-Apr-22 09:00N 50°58' E 001°51'3 5.5
2017-Apr-22 08:30N 50°58' E 001°47'1019.6
2017-Apr-22 08:00N 51°02' E 001°32'917.6
2017-Apr-22 07:31N 51°07' E 001°21'1 1.0
2017-Apr-22 06:38N 51°07' E 001°20'0 0.1
2017-Apr-22 06:29N 51°07' E 001°20'510.6
2017-Apr-22 06:01N 51°05' E 001°28'917.9
2017-Apr-22 05:30N 51°00' E 001°39'815.3
2017-Apr-22 05:01N 50°58' E 001°51'0 0.3
2017-Apr-22 04:30N 50°58' E 001°51'0 0.0
2017-Apr-22 04:00N 50°58' E 001°51'3 6.2
2017-Apr-22 03:30N 50°58' E 001°46'816.1
2017-Apr-22 03:00N 51°01' E 001°34'815.8
2017-Apr-22 02:30N 51°06' E 001°24'3 5.6
2017-Apr-22 01:57N 51°07' E 001°20'0 0.0
2017-Apr-22 01:31N 51°07' E 001°20'0 0.0
2017-Apr-22 00:59N 51°07' E 001°20'510.3
2017-Apr-22 00:31N 51°06' E 001°27'917.8
2017-Apr-22 00:00N 51°00' E 001°39'815.8
2017-Apr-21 23:31N 50°58' E 001°51'0 0.4
2017-Apr-21 23:00N 50°58' E 001°51'1 2.4
2017-Apr-21 22:30N 50°58' E 001°49'1019.5
2017-Apr-21 22:00N 50°58' E 001°34'918.0
2017-Apr-21 21:30N 51°05' E 001°25'4 6.4
2017-Apr-21 20:56N 51°07' E 001°20'0 0.0
2017-Apr-21 20:29N 51°07' E 001°20'3 6.1
2017-Apr-21 20:00N 51°07' E 001°25'917.6
2017-Apr-21 19:30N 51°02' E 001°36'816.2
2017-Apr-21 19:00N 50°58' E 001°48'2 4.0
2017-Apr-21 18:30N 50°58' E 001°51'0 0.0
2017-Apr-21 18:00N 50°58' E 001°51'611.7
2017-Apr-21 17:31N 50°58' E 001°42'917.2
2017-Apr-21 17:01N 51°02' E 001°30'815.8
2017-Apr-21 16:30N 51°07' E 001°20'0 0.9
2017-Apr-21 15:59N 51°07' E 001°20'0 0.2
2017-Apr-21 15:26N 51°07' E 001°20'614.6
2017-Apr-21 15:00N 51°05' E 001°29'1019.7
2017-Apr-21 14:30N 50°59' E 001°42'6 5.7
2017-Apr-21 13:30N 50°58' E 001°51'2 4.6
2017-Apr-21 13:01N 50°58' E 001°47'917.8
2017-Apr-21 12:31N 51°01' E 001°34'1019.3
2017-Apr-21 12:00N 51°07' E 001°21'1 0.9
2017-Apr-21 11:03N 51°07' E 001°20'0 2.5
2017-Apr-21 10:58N 51°07' E 001°20'714.9
2017-Apr-21 10:31N 51°04' E 001°30'918.6
2017-Apr-21 10:00N 50°59' E 001°42'611.1
2017-Apr-21 09:30N 50°58' E 001°51'0 0.0
2017-Apr-21 09:00N 50°58' E 001°51'3 5.3
2017-Apr-21 08:30N 50°58' E 001°47'917.8
2017-Apr-21 08:00N 51°00' E 001°33'817.0
2017-Apr-21 07:30N 51°06' E 001°24'3 2.3
2017-Apr-21 06:22N 51°07' E 001°20'2 6.8
2017-Apr-21 06:00N 51°07' E 001°24'918.1
2017-Apr-21 05:30N 51°02' E 001°36'816.3
2017-Apr-21 05:00N 50°58' E 001°47'2 4.5
2017-Apr-21 04:30N 50°58' E 001°51'0 0.0
2017-Apr-21 03:59N 50°58' E 001°51'2 4.5
2017-Apr-21 03:31N 50°58' E 001°48'917.6
2017-Apr-21 03:01N 51°01' E 001°35'816.7
2017-Apr-21 02:30N 51°06' E 001°23'3 2.6
2017-Apr-21 01:31N 51°07' E 001°20'0 0.0
2017-Apr-21 01:06N 51°07' E 001°20'0 0.0
2017-Apr-21 00:58N 51°07' E 001°20'510.4
2017-Apr-21 00:31N 51°06' E 001°27'816.7
2017-Apr-21 00:01N 51°01' E 001°38'816.5
2017-Apr-20 23:30N 50°58' E 001°50'1 1.3
2017-Apr-20 23:00N 50°58' E 001°51'0 0.0
2017-Apr-20 22:30N 50°58' E 001°51'713.6
2017-Apr-20 22:00N 50°59' E 001°40'917.7
2017-Apr-20 21:30N 51°03' E 001°28'713.0
2017-Apr-20 21:00N 51°07' E 001°20'0 0.0
2017-Apr-20 20:22N 51°07' E 001°20'1 3.3
2017-Apr-20 20:00N 51°07' E 001°22'917.8
2017-Apr-20 19:31N 51°03' E 001°35'917.5
2017-Apr-20 19:01N 50°58' E 001°46'3 6.6
2017-Apr-20 18:29N 50°58' E 001°51'0 0.0
2017-Apr-20 18:00N 50°58' E 001°51'4 8.8
2017-Apr-20 17:30N 50°58' E 001°44'1019.3
2017-Apr-20 17:00N 51°02' E 001°30'816.4
2017-Apr-20 16:30N 51°07' E 001°20'0 0.0
2017-Apr-20 15:36N 51°07' E 001°20'0 1.3
2017-Apr-20 15:31N 51°07' E 001°20'816.6
2017-Apr-20 15:00N 51°04' E 001°32'1019.6
2017-Apr-20 14:31N 50°58' E 001°45'  

Dump ship's entire track history